Time;durP1;ratioP1;P1;durP2;ratioP2;P2;SDS_P1;SDS_P2;PMS_P1;PMS_P2;Temp;Humidity;BMP_temperature;BMP_pressure;BME280_temperature;BME280_humidity;BME280_pressure;Samples;Min_cycle;Max_cycle;Signal;HPM_P1;HPM_P2
2022/03/20 00:00:22;;;;;;;;;;;5.30;99.90;;;;;;5096643;28;19912;-55
2022/03/20 00:02:48;;;;;;;;;;;5.30;99.90;;;;;;5096690;28;20347;-55
2022/03/20 00:05:14;;;;;;;;;;;5.30;99.90;;;;;;5096003;28;19908;-54
2022/03/20 00:07:41;;;;;;;;;;;5.30;99.90;;;;;;5096649;28;19912;-56
2022/03/20 00:10:07;;;;;;;;;;;5.30;99.90;;;;;;5095928;28;19915;-56
2022/03/20 00:12:33;;;;;;;;;;;5.20;99.90;;;;;;5096532;28;19912;-56
2022/03/20 00:14:58;;;;;;;;;;;5.20;99.90;;;;;;5095948;28;19916;-56
2022/03/20 00:17:24;;;;;;;;;;;5.20;99.90;;;;;;5095511;28;20396;-54
2022/03/20 00:19:49;;;;;;;;;;;5.10;99.90;;;;;;5096279;28;20465;-54
2022/03/20 00:22:15;;;;;;;;;;;5.10;99.90;;;;;;5096406;28;19965;-55
2022/03/20 00:24:42;;;;;;;;;;;5.10;99.90;;;;;;5095950;28;19908;-54
2022/03/20 00:27:09;;;;;;;;;;;5.00;99.90;;;;;;5096214;28;20255;-55
2022/03/20 00:29:34;;;;;;;;;;;5.00;99.90;;;;;;5096221;28;19914;-53
2022/03/20 00:32:00;;;;;;;;;;;5.00;99.90;;;;;;5095252;28;20003;-54
2022/03/20 00:34:25;;;;;;;;;;;5.00;99.90;;;;;;5096061;28;19916;-55
2022/03/20 00:36:51;;;;;;;;;;;4.90;99.90;;;;;;5096054;28;19955;-55
2022/03/20 00:39:16;;;;;;;;;;;4.90;99.90;;;;;;5095449;28;20358;-54
2022/03/20 00:41:42;;;;;;;;;;;4.90;99.90;;;;;;5096073;28;19934;-56
2022/03/20 00:44:07;;;;;;;;;;;4.90;99.90;;;;;;5095303;28;19912;-54
2022/03/20 00:46:33;;;;;;;;;;;4.90;99.90;;;;;;5095365;28;19908;-55
2022/03/20 00:48:58;;;;;;;;;;;4.90;99.90;;;;;;5094086;28;19912;-55
2022/03/20 00:51:23;;;;;;;;;;;4.80;99.90;;;;;;5095845;28;20249;-55
2022/03/20 00:53:49;;;;;;;;;;;4.80;99.90;;;;;;5095181;28;19920;-56
2022/03/20 00:56:14;;;;;;;;;;;4.80;99.90;;;;;;5095598;28;19912;-55
2022/03/20 00:58:40;;;;;;;;;;;4.80;99.90;;;;;;5095686;28;19930;-54
2022/03/20 01:01:08;;;;;;;;;;;4.70;99.90;;;;;;5094946;28;19908;-54
2022/03/20 01:03:33;;;;;;;;;;;4.70;99.90;;;;;;5095512;28;19908;-55
2022/03/20 01:05:59;;;;;;;;;;;4.70;99.90;;;;;;5095427;28;19934;-55
2022/03/20 01:08:24;;;;;;;;;;;4.70;99.90;;;;;;5094974;28;19912;-55
2022/03/20 01:10:50;;;;;;;;;;;4.70;99.90;;;;;;5095325;28;19908;-55
2022/03/20 01:13:15;;;;;;;;;;;4.60;99.90;;;;;;5094562;28;19920;-53
2022/03/20 01:15:41;;;;;;;;;;;4.60;99.90;;;;;;5094925;28;20344;-54
2022/03/20 01:18:07;;;;;;;;;;;4.60;99.90;;;;;;5095185;28;19912;-54
2022/03/20 01:20:32;;;;;;;;;;;4.50;99.90;;;;;;5094727;28;19915;-54
2022/03/20 01:22:58;;;;;;;;;;;4.50;99.90;;;;;;5095186;28;19910;-55
2022/03/20 01:25:24;;;;;;;;;;;4.50;99.90;;;;;;5095417;28;19942;-55
2022/03/20 01:27:49;;;;;;;;;;;4.40;99.90;;;;;;5094520;28;20350;-55
2022/03/20 01:30:14;;;;;;;;;;;4.40;99.90;;;;;;5094752;28;19912;-55
2022/03/20 01:32:40;;;;;;;;;;;4.40;99.90;;;;;;5095183;28;20465;-55
2022/03/20 01:35:08;;;;;;;;;;;4.40;99.90;;;;;;5094178;28;19912;-55
2022/03/20 01:37:33;;;;;;;;;;;4.30;99.90;;;;;;5095028;28;19909;-55
2022/03/20 01:39:59;;;;;;;;;;;4.30;99.90;;;;;;5094725;28;19999;-55
2022/03/20 01:42:24;;;;;;;;;;;4.30;99.90;;;;;;5094186;28;19968;-55
2022/03/20 01:44:50;;;;;;;;;;;4.30;99.90;;;;;;5094326;28;19920;-55
2022/03/20 01:47:15;;;;;;;;;;;4.30;99.90;;;;;;5094704;28;19912;-55
2022/03/20 01:49:40;;;;;;;;;;;4.20;99.90;;;;;;5094342;28;20355;-54
2022/03/20 01:52:23;;;;;;;;;;;4.20;99.90;;;;;;5094371;28;19914;-54
2022/03/20 01:54:49;;;;;;;;;;;4.20;99.90;;;;;;5094528;28;19923;-55
2022/03/20 01:57:16;;;;;;;;;;;4.20;99.90;;;;;;5093843;28;19908;-55
2022/03/20 01:59:42;;;;;;;;;;;4.10;99.90;;;;;;5094484;28;19908;-55
2022/03/20 02:02:07;;;;;;;;;;;4.10;99.90;;;;;;5093971;28;20240;-55
2022/03/20 02:04:34;;;;;;;;;;;4.10;99.90;;;;;;5093785;28;19908;-53
2022/03/20 02:07:00;;;;;;;;;;;4.20;99.90;;;;;;5094146;28;19912;-56
2022/03/20 02:09:26;;;;;;;;;;;4.10;99.90;;;;;;5094218;28;19908;-55
2022/03/20 02:11:51;;;;;;;;;;;4.10;99.90;;;;;;5093524;28;19912;-54
2022/03/20 02:14:17;;;;;;;;;;;4.10;99.90;;;;;;5094145;28;20283;-54
2022/03/20 02:16:43;;;;;;;;;;;4.10;99.90;;;;;;5093601;28;20313;-54
2022/03/20 02:19:08;;;;;;;;;;;4.10;99.90;;;;;;5093909;28;19908;-55
2022/03/20 02:21:39;;;;;;;;;;;4.10;99.90;;;;;;5094214;28;19909;-55
2022/03/20 02:24:24;;;;;;;;;;;4.00;99.90;;;;;;5093304;28;19914;-55
2022/03/20 02:26:50;;;;;;;;;;;4.00;99.90;;;;;;5079658;28;19919;-55
2022/03/20 02:29:15;;;;;;;;;;;4.00;99.90;;;;;;5093703;28;19912;-55
2022/03/20 02:31:42;;;;;;;;;;;4.00;99.90;;;;;;5093236;28;20363;-55
2022/03/20 02:34:07;;;;;;;;;;;4.00;99.90;;;;;;5093314;28;19922;-55
2022/03/20 02:36:36;;;;;;;;;;;4.00;99.90;;;;;;5093497;28;19908;-54
2022/03/20 02:39:03;;;;;;;;;;;4.00;99.90;;;;;;5093162;28;19914;-54
2022/03/20 02:41:29;;;;;;;;;;;4.00;99.90;;;;;;5093698;28;19962;-56
2022/03/20 02:43:54;;;;;;;;;;;4.00;99.90;;;;;;5092929;28;19912;-55
2022/03/20 02:46:20;;;;;;;;;;;4.00;99.90;;;;;;5092507;28;19960;-56
2022/03/20 02:48:46;;;;;;;;;;;3.90;99.90;;;;;;5093791;28;19908;-55
2022/03/20 02:51:11;;;;;;;;;;;4.00;99.90;;;;;;5093316;28;19913;-55
2022/03/20 02:53:37;;;;;;;;;;;3.90;99.90;;;;;;5093063;28;19955;-56
2022/03/20 02:56:03;;;;;;;;;;;3.90;99.90;;;;;;5093582;28;19908;-54
2022/03/20 02:58:29;;;;;;;;;;;3.90;99.90;;;;;;5093653;28;19915;-54
2022/03/20 03:00:55;;;;;;;;;;;3.90;99.90;;;;;;5092926;28;19908;-55
2022/03/20 03:03:21;;;;;;;;;;;3.90;99.90;;;;;;5093457;28;20069;-54
2022/03/20 03:05:47;;;;;;;;;;;3.90;99.90;;;;;;5093325;28;20376;-55
2022/03/20 03:10:57;;;;;;;;;;;3.80;99.90;;;;;;5093396;28;19916;-55
2022/03/20 03:13:27;;;;;;;;;;;3.80;99.90;;;;;;5095437;28;19951;-55
2022/03/20 03:15:54;;;;;;;;;;;3.80;99.90;;;;;;5097608;28;19915;-54
2022/03/20 03:18:20;;;;;;;;;;;3.80;99.90;;;;;;5097507;28;20428;-55
2022/03/20 03:20:47;;;;;;;;;;;3.80;99.90;;;;;;5096450;28;19912;-56
2022/03/20 03:23:13;;;;;;;;;;;3.80;99.90;;;;;;5097551;28;19916;-55
2022/03/20 03:25:40;;;;;;;;;;;3.80;99.90;;;;;;5097561;28;19908;-55
2022/03/20 03:28:06;;;;;;;;;;;3.70;99.90;;;;;;5096828;28;19930;-55
2022/03/20 03:30:32;;;;;;;;;;;3.70;99.90;;;;;;5097069;28;19920;-55
2022/03/20 03:32:57;;;;;;;;;;;3.70;99.90;;;;;;5097041;28;19922;-57
2022/03/20 03:38:07;;;;;;;;;;;3.60;99.90;;;;;;5097544;28;19915;-55
2022/03/20 03:40:33;;;;;;;;;;;3.60;99.90;;;;;;5097178;28;19915;-56
2022/03/20 03:42:59;;;;;;;;;;;3.60;99.90;;;;;;5096218;28;19912;-54
2022/03/20 03:45:25;;;;;;;;;;;3.60;99.90;;;;;;5096974;28;19908;-56
2022/03/20 03:47:51;;;;;;;;;;;3.60;99.90;;;;;;5097044;28;19914;-55
2022/03/20 03:50:17;;;;;;;;;;;3.50;99.90;;;;;;5096376;28;19908;-54
2022/03/20 03:52:42;;;;;;;;;;;3.50;99.90;;;;;;5096862;28;19946;-55
2022/03/20 03:55:08;;;;;;;;;;;3.40;99.90;;;;;;5096261;28;19920;-55
2022/03/20 03:57:33;;;;;;;;;;;3.40;99.90;;;;;;5096840;28;19916;-55
2022/03/20 03:59:58;;;;;;;;;;;3.40;99.90;;;;;;5096605;28;19961;-55
2022/03/20 04:02:24;;;;;;;;;;;3.40;99.90;;;;;;5095867;28;19916;-55
2022/03/20 04:04:50;;;;;;;;;;;3.40;99.90;;;;;;5096502;28;19916;-56
2022/03/20 04:07:18;;;;;;;;;;;3.40;99.90;;;;;;5096431;28;19997;-55
2022/03/20 04:09:44;;;;;;;;;;;3.40;99.90;;;;;;5096315;28;19908;-55
2022/03/20 04:12:13;;;;;;;;;;;3.40;99.90;;;;;;5096192;28;19916;-55
2022/03/20 04:14:39;;;;;;;;;;;3.40;99.90;;;;;;5096401;28;19916;-54
2022/03/20 04:17:06;;;;;;;;;;;3.30;99.90;;;;;;5095928;28;20282;-55
2022/03/20 04:19:31;;;;;;;;;;;3.40;99.90;;;;;;5096480;28;19914;-55
2022/03/20 04:21:57;;;;;;;;;;;3.30;99.90;;;;;;5096419;28;19999;-56
2022/03/20 04:24:22;;;;;;;;;;;3.30;99.90;;;;;;5095819;28;19947;-55
2022/03/20 04:26:48;;;;;;;;;;;3.30;99.90;;;;;;5096366;28;19908;-55
2022/03/20 04:29:13;;;;;;;;;;;3.30;99.90;;;;;;5096226;28;20031;-55
2022/03/20 04:31:40;;;;;;;;;;;3.30;99.90;;;;;;5095188;28;20397;-55
2022/03/20 04:34:06;;;;;;;;;;;3.20;99.90;;;;;;5095942;28;19971;-55
2022/03/20 04:36:31;;;;;;;;;;;3.20;99.90;;;;;;5096074;28;19908;-56
2022/03/20 04:38:59;;;;;;;;;;;3.20;99.90;;;;;;5095373;28;19908;-56
2022/03/20 04:41:24;;;;;;;;;;;3.20;99.90;;;;;;5095561;28;19909;-55
2022/03/20 04:43:51;;;;;;;;;;;3.20;99.90;;;;;;5095793;28;19935;-56
2022/03/20 04:46:17;;;;;;;;;;;3.10;99.90;;;;;;5095435;28;19912;-56
2022/03/20 04:59:38;;;;;;;;;;;3.00;99.90;;;;;;5095506;28;19915;-55
2022/03/20 05:02:04;;;;;;;;;;;3.10;99.90;;;;;;5095213;28;19912;-55
2022/03/20 05:04:29;;;;;;;;;;;3.10;99.90;;;;;;5095512;28;19998;-55
2022/03/20 05:06:55;;;;;;;;;;;3.00;99.90;;;;;;5094655;28;20271;-55
2022/03/20 05:14:49;;;;;;;;;;;3.00;99.90;;;;;;5095199;28;19969;-55
2022/03/20 05:17:15;;;;;;;;;;;3.00;99.90;;;;;;5095070;28;19912;-55
2022/03/20 05:19:40;;;;;;;;;;;3.00;99.90;;;;;;5094408;28;19919;-55
2022/03/20 05:22:09;;;;;;;;;;;2.90;99.90;;;;;;5094144;28;19944;-55
2022/03/20 05:24:35;;;;;;;;;;;2.90;99.90;;;;;;5094481;28;19912;-56
2022/03/20 05:27:00;;;;;;;;;;;2.90;99.90;;;;;;5093725;28;19912;-55
2022/03/20 05:29:26;;;;;;;;;;;2.90;99.90;;;;;;5094305;28;19908;-55
2022/03/20 05:31:53;;;;;;;;;;;2.90;99.90;;;;;;5093914;28;20270;-55
2022/03/20 05:34:19;;;;;;;;;;;2.90;99.90;;;;;;5093646;28;19923;-55
2022/03/20 05:36:45;;;;;;;;;;;2.90;99.90;;;;;;5093803;28;19908;-55
2022/03/20 05:39:10;;;;;;;;;;;2.90;99.90;;;;;;5094037;28;20278;-56
2022/03/20 05:41:49;;;;;;;;;;;2.90;99.90;;;;;;5093254;28;20015;-54
2022/03/20 05:44:15;;;;;;;;;;;2.90;99.90;;;;;;5093852;28;19971;-56
2022/03/20 05:46:42;;;;;;;;;;;2.90;99.90;;;;;;5093952;28;20349;-55
2022/03/20 05:49:07;;;;;;;;;;;2.90;99.90;;;;;;5093382;28;19916;-55
2022/03/20 05:51:34;;;;;;;;;;;2.90;99.90;;;;;;5093882;28;19908;-55
2022/03/20 05:54:00;;;;;;;;;;;2.90;99.90;;;;;;5093796;28;19916;-55
2022/03/20 05:59:09;;;;;;;;;;;2.90;99.90;;;;;;5094110;28;19935;-55
2022/03/20 06:01:35;;;;;;;;;;;2.90;99.90;;;;;;5093849;28;20351;-54
2022/03/20 06:04:03;;;;;;;;;;;2.90;99.90;;;;;;5093081;28;19944;-55
2022/03/20 06:06:29;;;;;;;;;;;2.90;99.90;;;;;;5093502;28;19909;-55
2022/03/20 06:08:55;;;;;;;;;;;3.00;99.90;;;;;;5093124;28;20290;-56
2022/03/20 06:11:21;;;;;;;;;;;3.00;99.90;;;;;;5093423;28;19908;-55
2022/03/20 06:13:48;;;;;;;;;;;3.00;99.90;;;;;;5093380;28;19916;-56
2022/03/20 06:16:17;;;;;;;;;;;3.00;99.90;;;;;;5092901;28;19919;-54
2022/03/20 06:18:43;;;;;;;;;;;3.00;99.90;;;;;;5091778;28;19958;-55
2022/03/20 06:21:12;;;;;;;;;;;3.10;99.90;;;;;;5093006;28;19954;-55
2022/03/20 06:23:38;;;;;;;;;;;3.10;99.90;;;;;;5074931;28;20259;-55
2022/03/20 06:26:04;;;;;;;;;;;3.10;99.90;;;;;;5093213;28;20343;-55
2022/03/20 06:28:30;;;;;;;;;;;3.20;99.90;;;;;;5093406;28;19908;-56
2022/03/20 06:30:55;;;;;;;;;;;3.20;99.90;;;;;;5092492;28;19931;-55
2022/03/20 06:33:21;;;;;;;;;;;3.30;99.90;;;;;;5093410;28;20381;-56
2022/03/20 06:35:47;;;;;;;;;;;3.30;99.90;;;;;;5092303;28;19923;-55
2022/03/20 06:38:12;;;;;;;;;;;3.30;99.90;;;;;;5092315;28;19916;-55
2022/03/20 06:40:38;;;;;;;;;;;3.40;99.90;;;;;;5093053;28;19908;-55
2022/03/20 06:43:03;;;;;;;;;;;3.40;99.90;;;;;;5093014;28;19908;-55
2022/03/20 06:45:29;;;;;;;;;;;3.50;99.90;;;;;;5092497;28;19908;-56
2022/03/20 06:47:54;;;;;;;;;;;3.50;99.90;;;;;;5092223;28;19914;-55
2022/03/20 06:50:20;;;;;;;;;;;3.60;99.90;;;;;;5092104;28;19908;-55
2022/03/20 06:52:45;;;;;;;;;;;3.60;99.90;;;;;;5091200;28;19920;-55
2022/03/20 06:55:12;;;;;;;;;;;3.70;99.90;;;;;;5090838;28;19916;-56
2022/03/20 06:57:41;;;;;;;;;;;3.70;99.90;;;;;;5088651;28;19908;-55
2022/03/20 07:00:07;;;;;;;;;;;3.80;99.90;;;;;;5091549;28;19915;-55
2022/03/20 07:02:33;;;;;;;;;;;3.90;99.90;;;;;;5091987;28;19908;-55
2022/03/20 07:04:58;;;;;;;;;;;3.90;99.90;;;;;;5091391;28;20345;-56
2022/03/20 07:07:24;;;;;;;;;;;3.90;99.90;;;;;;5091846;28;19908;-56
2022/03/20 07:09:49;;;;;;;;;;;4.00;99.90;;;;;;5092300;28;19961;-55
2022/03/20 07:12:15;;;;;;;;;;;4.10;99.90;;;;;;5091213;28;19912;-56
2022/03/20 07:14:41;;;;;;;;;;;4.10;99.90;;;;;;5092021;28;20302;-57
2022/03/20 07:17:09;;;;;;;;;;;4.20;99.90;;;;;;5091945;28;19908;-55
2022/03/20 07:19:35;;;;;;;;;;;4.30;99.90;;;;;;5092260;28;19994;-56
2022/03/20 07:22:01;;;;;;;;;;;4.30;99.90;;;;;;5092215;28;19969;-55
2022/03/20 07:24:27;;;;;;;;;;;4.40;99.90;;;;;;5092649;28;19908;-56
2022/03/20 07:29:36;;;;;;;;;;;4.50;99.90;;;;;;5092977;28;20283;-56
2022/03/20 07:32:04;;;;;;;;;;;4.60;99.90;;;;;;5092021;28;19924;-56
2022/03/20 07:34:30;;;;;;;;;;;4.60;99.90;;;;;;5091318;28;19920;-56
2022/03/20 07:36:56;;;;;;;;;;;4.70;99.90;;;;;;5091180;28;19908;-54
2022/03/20 07:39:21;;;;;;;;;;;4.80;99.90;;;;;;5091928;28;20019;-56
2022/03/20 07:41:47;;;;;;;;;;;4.90;99.90;;;;;;5091786;28;20007;-54
2022/03/20 07:44:12;;;;;;;;;;;4.90;99.90;;;;;;5092073;28;20256;-56
2022/03/20 07:46:40;;;;;;;;;;;5.00;99.90;;;;;;5091967;28;19912;-55
2022/03/20 07:49:07;;;;;;;;;;;5.10;99.90;;;;;;5091789;28;19915;-56
2022/03/20 07:51:34;;;;;;;;;;;5.10;99.90;;;;;;5092613;28;20273;-55
2022/03/20 07:53:59;;;;;;;;;;;5.20;99.90;;;;;;5091626;28;19943;-56
2022/03/20 07:56:28;;;;;;;;;;;5.30;99.90;;;;;;5091206;28;20343;-56
2022/03/20 07:58:54;;;;;;;;;;;5.40;99.90;;;;;;5093781;28;20355;-55
2022/03/20 08:01:20;;;;;;;;;;;5.50;99.90;;;;;;5095597;28;19970;-56
2022/03/20 08:03:46;;;;;;;;;;;5.50;99.90;;;;;;5095916;28;20305;-56
2022/03/20 08:06:12;;;;;;;;;;;5.60;99.90;;;;;;5095730;28;20364;-56
2022/03/20 08:08:39;;;;;;;;;;;5.70;99.90;;;;;;5095486;28;20003;-55
2022/03/20 08:11:05;;;;;;;;;;;5.70;99.90;;;;;;5095679;28;20018;-54
2022/03/20 08:13:31;;;;;;;;;;;5.70;98.50;;;;;;5095761;28;19924;-56
2022/03/20 08:15:57;;;;;;;;;;;5.80;99.90;;;;;;5095050;28;19908;-56
2022/03/20 08:18:22;;;;;;;;;;;5.90;99.90;;;;;;5095739;28;20255;-56
2022/03/20 08:20:47;;;;;;;;;;;6.10;99.90;;;;;;5095647;28;19908;-55
2022/03/20 08:23:13;;;;;;;;;;;6.20;96.70;;;;;;5094398;28;19924;-56
2022/03/20 08:25:38;;;;;;;;;;;6.20;99.20;;;;;;5095685;28;19908;-55
2022/03/20 08:28:05;;;;;;;;;;;6.20;95.90;;;;;;5095387;28;19908;-56
2022/03/20 08:30:31;;;;;;;;;;;6.30;98.70;;;;;;5094706;28;19927;-55
2022/03/20 08:32:57;;;;;;;;;;;6.40;96.10;;;;;;5094301;28;19916;-55
2022/03/20 08:35:22;;;;;;;;;;;6.50;97.30;;;;;;5095315;28;19908;-56
2022/03/20 08:37:49;;;;;;;;;;;6.50;96.40;;;;;;5094667;28;19919;-56
2022/03/20 08:40:16;;;;;;;;;;;6.60;91.50;;;;;;5095072;28;20018;-56
2022/03/20 08:42:45;;;;;;;;;;;6.70;92.80;;;;;;5092996;28;19950;-54
2022/03/20 08:45:11;;;;;;;;;;;6.70;93.90;;;;;;5091463;28;19916;-54
2022/03/20 08:47:37;;;;;;;;;;;6.80;91.80;;;;;;5092892;28;19918;-56
2022/03/20 08:50:03;;;;;;;;;;;6.90;95.00;;;;;;5093139;28;20360;-55
2022/03/20 08:52:28;;;;;;;;;;;7.00;86.20;;;;;;5092527;28;19919;-56
2022/03/20 08:54:54;;;;;;;;;;;7.10;89.70;;;;;;5093020;28;20018;-56
2022/03/20 08:57:19;;;;;;;;;;;7.10;79.80;;;;;;5093929;28;19964;-57
2022/03/20 08:59:45;;;;;;;;;;;7.20;84.30;;;;;;5093743;28;20256;-55
2022/03/20 09:02:10;;;;;;;;;;;7.30;82.30;;;;;;5094095;28;19916;-55
2022/03/20 09:04:36;;;;;;;;;;;7.40;91.40;;;;;;5094214;28;19908;-56
2022/03/20 09:07:01;;;;;;;;;;;7.50;83.10;;;;;;5093973;28;19936;-56
2022/03/20 09:09:27;;;;;;;;;;;7.60;88.70;;;;;;5094608;28;20313;-56
2022/03/20 09:11:52;;;;;;;;;;;7.70;82.10;;;;;;5093533;28;20353;-55
2022/03/20 09:14:18;;;;;;;;;;;7.70;78.10;;;;;;5094026;28;20397;-56
2022/03/20 09:19:27;;;;;;;;;;;7.80;71.60;;;;;;5090316;28;19940;-55
2022/03/20 09:21:53;;;;;;;;;;;7.90;69.50;;;;;;5091846;28;20285;-56
2022/03/20 09:24:18;;;;;;;;;;;7.90;73.80;;;;;;5091954;28;19908;-57
2022/03/20 09:26:44;;;;;;;;;;;8.00;68.10;;;;;;5091783;28;19909;-56
2022/03/20 09:29:10;;;;;;;;;;;8.00;75.90;;;;;;5093148;28;19908;-56
2022/03/20 09:31:35;;;;;;;;;;;8.10;65.30;;;;;;5094238;28;19928;-55
2022/03/20 09:34:01;;;;;;;;;;;8.20;70.30;;;;;;5093131;28;19931;-55
2022/03/20 09:36:27;;;;;;;;;;;8.30;69.40;;;;;;5093238;28;19980;-55
2022/03/20 09:38:53;;;;;;;;;;;8.40;72.80;;;;;;5094545;28;19908;-56
2022/03/20 09:41:18;;;;;;;;;;;8.50;74.40;;;;;;5093412;28;19930;-56
2022/03/20 09:43:45;;;;;;;;;;;8.50;79.00;;;;;;5094137;28;19908;-57
2022/03/20 09:46:10;;;;;;;;;;;8.60;65.30;;;;;;5093647;28;19915;-57
2022/03/20 09:48:36;;;;;;;;;;;8.70;69.70;;;;;;5093613;28;19908;-56
2022/03/20 09:51:03;;;;;;;;;;;8.80;70.50;;;;;;5093810;28;19914;-56
2022/03/20 09:53:29;;;;;;;;;;;8.90;70.40;;;;;;5093969;28;19916;-56
2022/03/20 09:55:55;;;;;;;;;;;8.90;71.00;;;;;;5093248;28;19908;-56
2022/03/20 09:58:25;;;;;;;;;;;9.10;66.70;;;;;;5093745;28;19915;-56
2022/03/20 10:00:50;;;;;;;;;;;9.20;67.00;;;;;;5093440;28;19959;-56
2022/03/20 10:03:17;;;;;;;;;;;9.30;73.20;;;;;;5092793;28;19955;-56
2022/03/20 10:05:42;;;;;;;;;;;9.30;63.70;;;;;;5093450;28;19999;-55
2022/03/20 10:08:19;;;;;;;;;;;9.30;61.30;;;;;;5092372;28;19994;-56
2022/03/20 10:10:47;;;;;;;;;;;9.30;65.80;;;;;;5093501;28;19915;-56
2022/03/20 10:13:13;;;;;;;;;;;9.40;61.90;;;;;;5093402;28;19970;-56
2022/03/20 10:15:40;;;;;;;;;;;9.50;65.10;;;;;;5092908;28;19916;-56
2022/03/20 10:18:17;;;;;;;;;;;9.50;60.50;;;;;;5093331;28;19915;-56
2022/03/20 10:20:46;;;;;;;;;;;9.70;64.00;;;;;;5093384;28;20019;-56
2022/03/20 10:23:28;;;;;;;;;;;9.80;62.30;;;;;;5092496;28;19908;-55
2022/03/20 10:25:54;;;;;;;;;;;9.80;61.60;;;;;;5093424;28;19999;-57
2022/03/20 10:28:19;;;;;;;;;;;10.00;63.90;;;;;;5093439;28;20002;-56
2022/03/20 10:30:57;;;;;;;;;;;10.10;63.70;;;;;;5092457;28;20316;-56
2022/03/20 10:33:23;;;;;;;;;;;10.10;63.30;;;;;;5092852;28;20279;-56
2022/03/20 10:36:07;;;;;;;;;;;10.10;61.40;;;;;;5092662;28;19919;-56
2022/03/20 10:38:36;;;;;;;;;;;10.20;59.30;;;;;;5084130;28;19912;-56
2022/03/20 10:41:14;;;;;;;;;;;10.40;61.60;;;;;;5092070;28;19923;-56
2022/03/20 10:43:43;;;;;;;;;;;10.40;61.30;;;;;;5091059;28;19920;-56
2022/03/20 10:46:16;;;;;;;;;;;10.50;60.90;;;;;;5088929;28;19971;-58
2022/03/20 10:48:43;;;;;;;;;;;10.70;62.20;;;;;;5089411;28;20759;-56
2022/03/20 10:51:08;;;;;;;;;;;10.70;61.10;;;;;;5090896;28;19998;-56
2022/03/20 10:53:34;;;;;;;;;;;10.80;59.30;;;;;;5091240;28;20793;-57
2022/03/20 10:56:07;;;;;;;;;;;10.70;55.60;;;;;;5091241;28;19961;-57
2022/03/20 10:58:36;;;;;;;;;;;10.90;58.70;;;;;;5087606;28;19927;-55
2022/03/20 11:01:01;;;;;;;;;;;11.00;60.80;;;;;;5088599;28;19991;-56
2022/03/20 11:03:27;;;;;;;;;;;11.10;59.70;;;;;;5091287;28;20326;-56
2022/03/20 11:05:54;;;;;;;;;;;11.20;55.00;;;;;;5091154;28;19915;-55
2022/03/20 11:08:19;;;;;;;;;;;11.10;54.50;;;;;;5092853;28;19935;-55
2022/03/20 11:10:46;;;;;;;;;;;11.30;59.00;;;;;;5092546;28;19946;-55
2022/03/20 11:13:15;;;;;;;;;;;11.40;56.00;;;;;;5091897;28;19916;-56
2022/03/20 11:15:43;;;;;;;;;;;11.50;57.40;;;;;;5092903;28;19915;-56
2022/03/20 11:18:08;;;;;;;;;;;11.60;58.40;;;;;;5092299;28;19931;-58
2022/03/20 11:20:34;;;;;;;;;;;11.70;56.60;;;;;;5092436;28;20355;-56
2022/03/20 11:23:04;;;;;;;;;;;11.80;56.70;;;;;;5092396;28;20350;-55
2022/03/20 11:25:31;;;;;;;;;;;11.90;58.90;;;;;;5091350;28;19955;-55
2022/03/20 11:28:03;;;;;;;;;;;12.00;57.50;;;;;;5091612;28;19908;-56
2022/03/20 11:30:30;;;;;;;;;;;12.10;57.80;;;;;;5076449;28;19932;-56
2022/03/20 11:32:57;;;;;;;;;;;12.20;55.00;;;;;;5090299;28;19912;-56
2022/03/20 11:35:25;;;;;;;;;;;12.20;56.30;;;;;;5092878;28;19966;-57
2022/03/20 11:37:52;;;;;;;;;;;12.30;57.00;;;;;;5094732;28;19916;-55
2022/03/20 11:40:24;;;;;;;;;;;12.40;56.50;;;;;;5094320;28;19923;-55
2022/03/20 11:42:51;;;;;;;;;;;12.50;55.70;;;;;;5095329;28;20057;-58
2022/03/20 11:45:20;;;;;;;;;;;12.50;54.40;;;;;;5095941;28;19908;-57
2022/03/20 11:47:47;;;;;;;;;;;12.50;56.00;;;;;;5095918;28;19913;-56
2022/03/20 11:50:20;;;;;;;;;;;12.60;54.70;;;;;;5096116;28;19916;-57
2022/03/20 11:52:50;;;;;;;;;;;12.70;55.50;;;;;;5091823;28;19954;-56
2022/03/20 11:55:34;;;;;;;;;;;12.70;56.00;;;;;;5093870;28;19913;-57
2022/03/20 11:58:01;;;;;;;;;;;12.70;56.10;;;;;;5093331;28;19924;-56
2022/03/20 12:00:28;;;;;;;;;;;12.70;53.80;;;;;;5094478;28;19917;-59
2022/03/20 12:02:53;;;;;;;;;;;12.70;54.40;;;;;;5093629;28;20790;-57
2022/03/20 12:05:24;;;;;;;;;;;12.60;53.30;;;;;;5093201;28;19912;-56
2022/03/20 12:07:58;;;;;;;;;;;12.60;53.30;;;;;;5093638;28;19982;-58
2022/03/20 12:10:30;;;;;;;;;;;12.60;52.90;;;;;;5095125;28;20022;-56
2022/03/20 12:13:13;;;;;;;;;;;12.80;56.00;;;;;;5094009;28;20331;-57
2022/03/20 12:15:42;;;;;;;;;;;12.90;55.90;;;;;;5094338;28;19953;-57
2022/03/20 12:18:10;;;;;;;;;;;13.10;55.60;;;;;;5094205;28;19916;-56
2022/03/20 12:21:02;;;;;;;;;;;13.30;55.80;;;;;;5092033;28;20367;-56
2022/03/20 12:23:43;;;;;;;;;;;13.40;54.50;;;;;;5075204;28;19915;-55
2022/03/20 12:26:31;;;;;;;;;;;13.60;53.40;;;;;;5075060;28;19912;-56
2022/03/20 12:29:15;;;;;;;;;;;13.70;50.90;;;;;;5074660;28;19908;-56
2022/03/20 12:32:07;;;;;;;;;;;13.80;53.70;;;;;;5089062;28;19942;-55
2022/03/20 12:34:33;;;;;;;;;;;13.90;54.60;;;;;;5091057;28;20314;-56
2022/03/20 12:37:17;;;;;;;;;;;13.90;50.80;;;;;;5092664;28;19917;-56
2022/03/20 12:39:49;;;;;;;;;;;14.00;53.40;;;;;;5077257;28;20278;-56
2022/03/20 12:42:16;;;;;;;;;;;14.00;52.70;;;;;;5090790;28;19916;-55
2022/03/20 12:44:45;;;;;;;;;;;14.10;54.50;;;;;;5090857;28;20520;-57
2022/03/20 12:47:11;;;;;;;;;;;14.10;52.30;;;;;;5089322;28;19920;-56
2022/03/20 12:49:37;;;;;;;;;;;14.10;51.50;;;;;;5093727;28;19965;-57
2022/03/20 12:52:03;;;;;;;;;;;14.00;51.80;;;;;;5093679;28;19914;-56
2022/03/20 12:54:30;;;;;;;;;;;13.80;51.10;;;;;;5094843;28;19999;-56
2022/03/20 12:56:58;;;;;;;;;;;13.50;52.20;;;;;;5093802;28;20380;-57
2022/03/20 12:59:24;;;;;;;;;;;13.40;53.20;;;;;;5095020;28;20489;-57
2022/03/20 13:01:50;;;;;;;;;;;13.40;52.50;;;;;;5094506;28;20359;-56
2022/03/20 13:04:16;;;;;;;;;;;13.40;54.60;;;;;;5093860;28;19912;-56
2022/03/20 13:06:41;;;;;;;;;;;13.50;54.80;;;;;;5091698;28;20171;-56
2022/03/20 13:09:13;;;;;;;;;;;13.70;53.10;;;;;;5091979;28;19913;-55
2022/03/20 13:11:48;;;;;;;;;;;13.90;53.40;;;;;;5092288;28;19985;-56
2022/03/20 13:14:14;;;;;;;;;;;14.10;53.00;;;;;;5094541;28;20113;-57
2022/03/20 13:16:56;;;;;;;;;;;14.20;52.30;;;;;;5094797;28;20019;-56
2022/03/20 13:19:26;;;;;;;;;;;14.40;53.40;;;;;;5093704;28;20282;-56
2022/03/20 13:21:51;;;;;;;;;;;14.10;52.90;;;;;;5093974;28;19927;-55
2022/03/20 13:24:26;;;;;;;;;;;13.70;53.30;;;;;;5093069;28;19908;-55
2022/03/20 13:27:00;;;;;;;;;;;13.50;52.50;;;;;;5089916;28;19984;-56
2022/03/20 13:29:25;;;;;;;;;;;13.50;53.80;;;;;;5094273;28;19916;-55
2022/03/20 13:31:59;;;;;;;;;;;13.70;55.00;;;;;;5091866;28;20061;-57
2022/03/20 13:34:25;;;;;;;;;;;13.80;53.90;;;;;;5083615;28;19927;-56
2022/03/20 13:36:50;;;;;;;;;;;13.80;54.80;;;;;;5093907;28;19924;-56
2022/03/20 13:39:17;;;;;;;;;;;13.70;51.70;;;;;;5092048;28;19919;-56
2022/03/20 13:41:43;;;;;;;;;;;13.60;51.90;;;;;;5092958;28;19912;-56
2022/03/20 13:44:11;;;;;;;;;;;13.80;53.40;;;;;;5088834;28;21443;-56
2022/03/20 13:46:37;;;;;;;;;;;14.10;52.40;;;;;;5095040;28;19923;-56
2022/03/20 13:49:06;;;;;;;;;;;14.60;53.20;;;;;;5092898;28;19912;-56
2022/03/20 13:51:32;;;;;;;;;;;14.90;52.40;;;;;;5092811;28;19916;-56
2022/03/20 13:54:08;;;;;;;;;;;15.20;52.10;;;;;;5091695;28;20022;-56
2022/03/20 13:56:34;;;;;;;;;;;15.50;51.90;;;;;;5093247;28;19913;-56
2022/03/20 13:59:04;;;;;;;;;;;15.80;51.80;;;;;;5092813;28;19923;-56
2022/03/20 14:01:50;;;;;;;;;;;15.90;50.90;;;;;;5090380;28;19912;-56
2022/03/20 14:04:16;;;;;;;;;;;15.60;49.80;;;;;;5087919;28;19912;-56
2022/03/20 14:06:44;;;;;;;;;;;15.50;50.40;;;;;;5093826;28;19916;-56
2022/03/20 14:09:10;;;;;;;;;;;15.60;51.20;;;;;;5093159;28;19908;-55
2022/03/20 14:11:36;;;;;;;;;;;15.30;51.20;;;;;;5093941;28;19915;-55
2022/03/20 14:14:03;;;;;;;;;;;14.90;52.20;;;;;;5092259;28;19927;-55
2022/03/20 14:16:29;;;;;;;;;;;14.60;50.10;;;;;;5093534;28;19915;-56
2022/03/20 14:19:00;;;;;;;;;;;14.30;52.80;;;;;;5092623;28;19912;-56
2022/03/20 14:21:27;;;;;;;;;;;14.00;52.70;;;;;;5093220;28;19930;-55
2022/03/20 14:23:55;;;;;;;;;;;13.70;53.60;;;;;;5090089;28;19916;-55
2022/03/20 14:26:20;;;;;;;;;;;13.50;54.30;;;;;;5099290;28;20002;-56
2022/03/20 14:28:46;;;;;;;;;;;13.40;54.60;;;;;;5088203;28;20027;-54
2022/03/20 14:39:43;;;;;;;;;;;13.00;54.70;;;;;;5080956;28;19924;-55
2022/03/20 14:42:22;;;;;;;;;;;13.00;55.60;;;;;;5090133;28;19918;-57
2022/03/20 14:44:48;;;;;;;;;;;12.90;55.60;;;;;;5091533;28;19947;-55
2022/03/20 14:47:14;;;;;;;;;;;12.90;56.90;;;;;;5092865;28;19912;-54
2022/03/20 14:49:40;;;;;;;;;;;12.90;57.20;;;;;;5092892;28;19994;-54
2022/03/20 14:52:08;;;;;;;;;;;12.90;57.10;;;;;;5092121;28;20335;-54
2022/03/20 14:54:34;;;;;;;;;;;12.90;57.00;;;;;;5092898;28;19916;-54
2022/03/20 14:56:59;;;;;;;;;;;12.90;56.40;;;;;;5092062;28;19970;-55
2022/03/20 14:59:25;;;;;;;;;;;12.80;55.90;;;;;;5092995;28;20390;-54
2022/03/20 15:01:51;;;;;;;;;;;12.80;56.70;;;;;;5092849;28;19908;-54
2022/03/20 15:04:17;;;;;;;;;;;12.70;56.90;;;;;;5091869;28;20007;-56